sensor_id;sensor_type;location;lat;lon;timestamp;pressure;altitude;pressure_sealevel;temperature;humidity
64668;BME280;51077;42.716;23.344;2023-03-04T00:01:29;95404.53;;;8.22;62.93
64668;BME280;51077;42.716;23.344;2023-03-04T00:03:55;95408.06;;;8.23;63.09
64668;BME280;51077;42.716;23.344;2023-03-04T00:06:20;95413.50;;;8.23;63.24
64668;BME280;51077;42.716;23.344;2023-03-04T00:08:45;95415.00;;;8.24;63.06
64668;BME280;51077;42.716;23.344;2023-03-04T00:11:11;95410.28;;;8.24;63.00
64668;BME280;51077;42.716;23.344;2023-03-04T00:13:36;95406.31;;;8.25;62.80
64668;BME280;51077;42.716;23.344;2023-03-04T00:16:01;95407.03;;;8.26;63.27
64668;BME280;51077;42.716;23.344;2023-03-04T00:18:27;95406.31;;;8.25;62.94
64668;BME280;51077;42.716;23.344;2023-03-04T00:20:52;95407.78;;;8.26;62.92
64668;BME280;51077;42.716;23.344;2023-03-04T00:23:17;95402.59;;;8.28;62.89
64668;BME280;51077;42.716;23.344;2023-03-04T00:25:43;95401.09;;;8.27;63.06
64668;BME280;51077;42.716;23.344;2023-03-04T00:28:08;95398.38;;;8.27;63.10
64668;BME280;51077;42.716;23.344;2023-03-04T00:30:34;95400.59;;;8.29;62.96
64668;BME280;51077;42.716;23.344;2023-03-04T00:32:59;95404.56;;;8.28;63.17
64668;BME280;51077;42.716;23.344;2023-03-04T00:35:24;95392.41;;;8.29;62.87
64668;BME280;51077;42.716;23.344;2023-03-04T00:37:50;95389.66;;;8.29;63.02
64668;BME280;51077;42.716;23.344;2023-03-04T00:40:15;95391.88;;;8.30;63.02
64668;BME280;51077;42.716;23.344;2023-03-04T00:42:41;95386.41;;;8.30;63.16
64668;BME280;51077;42.716;23.344;2023-03-04T00:45:07;95391.16;;;8.30;62.95
64668;BME280;51077;42.716;23.344;2023-03-04T00:47:33;95379.97;;;8.28;62.94
64668;BME280;51077;42.716;23.344;2023-03-04T00:49:58;95380.72;;;8.28;62.87
64668;BME280;51077;42.716;23.344;2023-03-04T00:52:23;95382.69;;;8.28;63.02
64668;BME280;51077;42.716;23.344;2023-03-04T00:54:49;95384.69;;;8.27;63.12
64668;BME280;51077;42.716;23.344;2023-03-04T00:57:14;95385.44;;;8.28;62.95
64668;BME280;51077;42.716;23.344;2023-03-04T00:59:39;95381.19;;;8.27;62.82
64668;BME280;51077;42.716;23.344;2023-03-04T01:02:05;95383.19;;;8.26;63.04
64668;BME280;51077;42.716;23.344;2023-03-04T01:04:31;95385.44;;;8.28;62.87
64668;BME280;51077;42.716;23.344;2023-03-04T01:06:57;95381.19;;;8.27;62.97
64668;BME280;51077;42.716;23.344;2023-03-04T01:09:22;95378.44;;;8.27;62.95
64668;BME280;51077;42.716;23.344;2023-03-04T01:11:47;95389.38;;;8.27;62.73
64668;BME280;51077;42.716;23.344;2023-03-04T01:14:13;95383.19;;;8.26;62.96
64668;BME280;51077;42.716;23.344;2023-03-04T01:16:38;95386.41;;;8.25;62.98
64668;BME280;51077;42.716;23.344;2023-03-04T01:19:04;95377.47;;;8.24;62.99
64668;BME280;51077;42.716;23.344;2023-03-04T01:21:29;95378.22;;;8.25;62.99
64668;BME280;51077;42.716;23.344;2023-03-04T01:23:54;95374.72;;;8.24;63.11
64668;BME280;51077;42.716;23.344;2023-03-04T01:26:20;95375.47;;;8.25;63.00
64668;BME280;51077;42.716;23.344;2023-03-04T01:28:46;95374.72;;;8.24;63.15
64668;BME280;51077;42.716;23.344;2023-03-04T01:31:11;95374.72;;;8.24;63.01
64668;BME280;51077;42.716;23.344;2023-03-04T01:33:37;95374.72;;;8.24;62.84
64668;BME280;51077;42.716;23.344;2023-03-04T01:36:02;95374.72;;;8.24;63.12
64668;BME280;51077;42.716;23.344;2023-03-04T01:38:28;95365.78;;;8.24;62.94
64668;BME280;51077;42.716;23.344;2023-03-04T01:40:53;95359.06;;;8.25;63.01
64668;BME280;51077;42.716;23.344;2023-03-04T01:43:25;95364.53;;;8.25;62.96
64668;BME280;51077;42.716;23.344;2023-03-04T01:45:52;95355.09;;;8.26;62.89
64668;BME280;51077;42.716;23.344;2023-03-04T01:48:25;95346.16;;;8.25;62.82
64668;BME280;51077;42.716;23.344;2023-03-04T01:50:52;95343.16;;;8.23;63.03
64668;BME280;51077;42.716;23.344;2023-03-04T01:53:26;95336.19;;;8.22;62.99
64668;BME280;51077;42.716;23.344;2023-03-04T01:55:54;95340.91;;;8.22;62.79
64668;BME280;51077;42.716;23.344;2023-03-04T01:58:23;95345.63;;;8.21;62.94
64668;BME280;51077;42.716;23.344;2023-03-04T02:00:50;95341.16;;;8.18;62.79
64668;BME280;51077;42.716;23.344;2023-03-04T02:03:16;95337.44;;;8.16;62.96
64668;BME280;51077;42.716;23.344;2023-03-04T02:05:51;95341.66;;;8.17;63.03
64668;BME280;51077;42.716;23.344;2023-03-04T02:08:18;95342.16;;;8.15;62.94
64668;BME280;51077;42.716;23.344;2023-03-04T02:10:44;95340.66;;;8.14;63.16
64668;BME280;51077;42.716;23.344;2023-03-04T02:13:11;95340.66;;;8.14;62.98
64668;BME280;51077;42.716;23.344;2023-03-04T02:15:36;95338.91;;;8.11;63.38
64668;BME280;51077;42.716;23.344;2023-03-04T02:18:07;95343.63;;;8.11;63.00
64668;BME280;51077;42.716;23.344;2023-03-04T02:23:20;95334.44;;;8.08;63.14
64668;BME280;51077;42.716;23.344;2023-03-04T02:28:34;95329.94;;;8.05;63.23
64668;BME280;51077;42.716;23.344;2023-03-04T02:30:59;95333.16;;;8.03;63.06
64668;BME280;51077;42.716;23.344;2023-03-04T02:33:25;95335.16;;;8.03;63.13
64668;BME280;51077;42.716;23.344;2023-03-04T02:35:50;95333.41;;;8.00;63.14
64668;BME280;51077;42.716;23.344;2023-03-04T02:38:16;95338.13;;;7.99;63.25
64668;BME280;51077;42.716;23.344;2023-03-04T02:40:45;95337.88;;;7.97;63.23
64668;BME280;51077;42.716;23.344;2023-03-04T02:43:12;95330.16;;;7.96;63.14
64668;BME280;51077;42.716;23.344;2023-03-04T02:45:47;95334.88;;;7.95;63.20
64668;BME280;51077;42.716;23.344;2023-03-04T02:48:18;95322.19;;;7.92;63.36
64668;BME280;51077;42.716;23.344;2023-03-04T02:50:54;95326.69;;;7.90;63.36
64668;BME280;51077;42.716;23.344;2023-03-04T02:53:20;95326.16;;;7.86;63.19
64668;BME280;51077;42.716;23.344;2023-03-04T02:55:46;95323.94;;;7.84;63.60
64668;BME280;51077;42.716;23.344;2023-03-04T02:58:12;95324.91;;;7.81;63.54
64668;BME280;51077;42.716;23.344;2023-03-04T03:00:38;95323.91;;;7.78;63.23
64668;BME280;51077;42.716;23.344;2023-03-04T03:03:04;95321.44;;;7.75;63.40
64668;BME280;51077;42.716;23.344;2023-03-04T03:05:31;95322.88;;;7.70;63.77
64668;BME280;51077;42.716;23.344;2023-03-04T03:07:57;95326.59;;;7.67;63.79
64668;BME280;51077;42.716;23.344;2023-03-04T03:10:22;95326.34;;;7.65;63.88
64668;BME280;51077;42.716;23.344;2023-03-04T03:12:48;95332.03;;;7.62;63.48
64668;BME280;51077;42.716;23.344;2023-03-04T03:15:14;95328.03;;;7.57;63.95
64668;BME280;51077;42.716;23.344;2023-03-04T03:17:40;95331.25;;;7.55;63.73
64668;BME280;51077;42.716;23.344;2023-03-04T03:20:06;95327.53;;;7.53;63.97
64668;BME280;51077;42.716;23.344;2023-03-04T03:22:32;95322.31;;;7.49;64.17
64668;BME280;51077;42.716;23.344;2023-03-04T03:24:57;95324.03;;;7.47;63.82
64668;BME280;51077;42.716;23.344;2023-03-04T03:27:23;95321.53;;;7.43;63.93
64668;BME280;51077;42.716;23.344;2023-03-04T03:29:48;95327.47;;;7.42;63.73
64668;BME280;51077;42.716;23.344;2023-03-04T03:32:14;95323.00;;;7.39;64.26
64668;BME280;51077;42.716;23.344;2023-03-04T03:34:39;95317.53;;;7.39;64.03
64668;BME280;51077;42.716;23.344;2023-03-04T03:37:04;95319.00;;;7.34;64.37
64668;BME280;51077;42.716;23.344;2023-03-04T03:39:30;95320.25;;;7.33;64.14
64668;BME280;51077;42.716;23.344;2023-03-04T03:41:55;95319.97;;;7.31;64.30
64668;BME280;51077;42.716;23.344;2023-03-04T03:44:21;95322.44;;;7.29;64.33
64668;BME280;51077;42.716;23.344;2023-03-04T03:46:46;95316.72;;;7.27;64.40
64668;BME280;51077;42.716;23.344;2023-03-04T03:49:11;95319.19;;;7.25;64.31
64668;BME280;51077;42.716;23.344;2023-03-04T03:51:37;95320.91;;;7.22;64.43
64668;BME280;51077;42.716;23.344;2023-03-04T03:54:03;95314.72;;;7.22;64.39
64668;BME280;51077;42.716;23.344;2023-03-04T03:56:28;95313.22;;;7.21;64.10
64668;BME280;51077;42.716;23.344;2023-03-04T03:58:53;95309.00;;;7.20;64.45
64668;BME280;51077;42.716;23.344;2023-03-04T04:01:19;95315.22;;;7.20;64.58
64668;BME280;51077;42.716;23.344;2023-03-04T04:03:44;95310.25;;;7.19;64.72
64668;BME280;51077;42.716;23.344;2023-03-04T04:06:10;95306.00;;;7.18;64.70
64668;BME280;51077;42.716;23.344;2023-03-04T04:08:35;95303.28;;;7.18;64.43
64668;BME280;51077;42.716;23.344;2023-03-04T04:11:00;95303.28;;;7.18;64.68
64668;BME280;51077;42.716;23.344;2023-03-04T04:13:26;95301.03;;;7.16;64.67
64668;BME280;51077;42.716;23.344;2023-03-04T04:15:51;95299.06;;;7.17;64.35
64668;BME280;51077;42.716;23.344;2023-03-04T04:18:17;95299.56;;;7.15;64.58
64668;BME280;51077;42.716;23.344;2023-03-04T04:20:42;95300.03;;;7.14;64.56
64668;BME280;51077;42.716;23.344;2023-03-04T04:23:07;95302.50;;;7.12;64.58
64668;BME280;51077;42.716;23.344;2023-03-04T04:25:33;95303.75;;;7.11;64.43
64668;BME280;51077;42.716;23.344;2023-03-04T04:27:58;95301.50;;;7.09;64.44
64668;BME280;51077;42.716;23.344;2023-03-04T04:30:24;95300.75;;;7.09;64.54
64668;BME280;51077;42.716;23.344;2023-03-04T04:32:49;95297.75;;;7.07;64.71
64668;BME280;51077;42.716;23.344;2023-03-04T04:35:15;95302.47;;;7.06;64.57
64668;BME280;51077;42.716;23.344;2023-03-04T04:37:40;95300.22;;;7.04;64.43
64668;BME280;51077;42.716;23.344;2023-03-04T04:40:06;95299.97;;;7.02;64.54
64668;BME280;51077;42.716;23.344;2023-03-04T04:42:31;95295.75;;;7.01;64.60
64668;BME280;51077;42.716;23.344;2023-03-04T04:44:57;95304.41;;;7.00;64.50
64668;BME280;51077;42.716;23.344;2023-03-04T04:47:22;95308.38;;;6.99;64.75
64668;BME280;51077;42.716;23.344;2023-03-04T04:49:48;95302.69;;;6.97;64.50
64668;BME280;51077;42.716;23.344;2023-03-04T04:52:13;95297.69;;;6.95;64.61
64668;BME280;51077;42.716;23.344;2023-03-04T04:54:38;95304.63;;;6.96;64.73
64668;BME280;51077;42.716;23.344;2023-03-04T04:57:04;95301.66;;;6.94;64.64
64668;BME280;51077;42.716;23.344;2023-03-04T04:59:29;95316.03;;;6.95;64.39
64668;BME280;51077;42.716;23.344;2023-03-04T05:01:55;95306.38;;;6.94;64.48
64668;BME280;51077;42.716;23.344;2023-03-04T05:04:20;95318.78;;;6.95;64.34
64668;BME280;51077;42.716;23.344;2023-03-04T05:06:45;95324.22;;;6.95;64.72
64668;BME280;51077;42.716;23.344;2023-03-04T05:09:11;95321.78;;;6.97;64.42
64668;BME280;51077;42.716;23.344;2023-03-04T05:11:38;95325.50;;;6.99;64.40
64668;BME280;51077;42.716;23.344;2023-03-04T05:14:03;95325.78;;;7.01;64.20
64668;BME280;51077;42.716;23.344;2023-03-04T05:16:29;95331.75;;;7.05;64.47
64668;BME280;51077;42.716;23.344;2023-03-04T05:18:54;95340.47;;;7.10;64.09
64668;BME280;51077;42.716;23.344;2023-03-04T05:21:19;95333.28;;;7.12;63.90
64668;BME280;51077;42.716;23.344;2023-03-04T05:23:45;95326.84;;;7.15;63.95
64668;BME280;51077;42.716;23.344;2023-03-04T05:26:13;95332.09;;;7.19;64.17
64668;BME280;51077;42.716;23.344;2023-03-04T05:28:39;95331.84;;;7.22;63.83
64668;BME280;51077;42.716;23.344;2023-03-04T05:31:05;95339.31;;;7.27;63.74
64668;BME280;51077;42.716;23.344;2023-03-04T05:33:30;95341.81;;;7.31;63.42
64668;BME280;51077;42.716;23.344;2023-03-04T05:35:56;95339.34;;;7.33;63.76
64668;BME280;51077;42.716;23.344;2023-03-04T05:38:21;95341.34;;;7.38;63.37
64668;BME280;51077;42.716;23.344;2023-03-04T05:40:47;95338.66;;;7.44;63.11
64668;BME280;51077;42.716;23.344;2023-03-04T05:43:14;95336.44;;;7.48;63.12
64668;BME280;51077;42.716;23.344;2023-03-04T05:45:40;95336.47;;;7.53;63.07
64668;BME280;51077;42.716;23.344;2023-03-04T05:48:06;95338.97;;;7.57;62.97
64668;BME280;51077;42.716;23.344;2023-03-04T05:50:33;95346.19;;;7.60;62.94
64668;BME280;51077;42.716;23.344;2023-03-04T05:52:58;95352.91;;;7.65;62.61
64668;BME280;51077;42.716;23.344;2023-03-04T05:55:24;95346.47;;;7.68;62.60
64668;BME280;51077;42.716;23.344;2023-03-04T05:57:52;95355.19;;;7.72;62.81
64668;BME280;51077;42.716;23.344;2023-03-04T06:00:18;95354.94;;;7.75;62.67
64668;BME280;51077;42.716;23.344;2023-03-04T06:02:43;95357.44;;;7.79;62.34
64668;BME280;51077;42.716;23.344;2023-03-04T06:05:11;95366.63;;;7.81;62.75
64668;BME280;51077;42.716;23.344;2023-03-04T06:07:36;95365.66;;;7.85;62.20
64668;BME280;51077;42.716;23.344;2023-03-04T06:10:03;95364.19;;;7.89;62.13
64668;BME280;51077;42.716;23.344;2023-03-04T06:12:28;95364.69;;;7.93;61.95
64668;BME280;51077;42.716;23.344;2023-03-04T06:14:54;95364.94;;;7.95;62.26
64668;BME280;51077;42.716;23.344;2023-03-04T06:17:19;95365.72;;;8.01;62.10
64668;BME280;51077;42.716;23.344;2023-03-04T06:19:45;95370.94;;;8.05;62.21
64668;BME280;51077;42.716;23.344;2023-03-04T06:22:10;95372.97;;;8.10;61.83
64668;BME280;51077;42.716;23.344;2023-03-04T06:24:36;95368.47;;;8.13;61.72
64668;BME280;51077;42.716;23.344;2023-03-04T06:27:02;95372.47;;;8.17;61.63
64668;BME280;51077;42.716;23.344;2023-03-04T06:29:28;95375.97;;;8.23;61.61
64668;BME280;51077;42.716;23.344;2023-03-04T06:31:53;95371.75;;;8.28;61.61
64668;BME280;51077;42.716;23.344;2023-03-04T06:34:19;95375.25;;;8.34;61.31
64668;BME280;51077;42.716;23.344;2023-03-04T06:36:44;95373.31;;;8.40;61.41
64668;BME280;51077;42.716;23.344;2023-03-04T06:39:10;95376.28;;;8.48;61.16
64668;BME280;51077;42.716;23.344;2023-03-04T06:41:36;95377.81;;;8.54;61.08
64668;BME280;51077;42.716;23.344;2023-03-04T06:44:01;95378.81;;;8.63;60.89
64668;BME280;51077;42.716;23.344;2023-03-04T06:46:27;95374.34;;;8.71;60.69
64668;BME280;51077;42.716;23.344;2023-03-04T06:48:52;95376.56;;;8.78;60.77
64668;BME280;51077;42.716;23.344;2023-03-04T06:51:18;95376.56;;;8.84;60.65
64668;BME280;51077;42.716;23.344;2023-03-04T06:53:44;95379.31;;;8.89;60.37
64668;BME280;51077;42.716;23.344;2023-03-04T06:56:11;95389.53;;;8.94;60.33
64668;BME280;51077;42.716;23.344;2023-03-04T06:58:37;95390.03;;;8.98;60.34
64668;BME280;51077;42.716;23.344;2023-03-04T07:01:29;95385.28;;;9.04;60.14
64668;BME280;51077;42.716;23.344;2023-03-04T07:03:55;95384.28;;;9.07;60.06
64668;BME280;51077;42.716;23.344;2023-03-04T07:06:23;95391.75;;;9.13;60.02
64668;BME280;51077;42.716;23.344;2023-03-04T07:08:49;95398.25;;;9.15;59.71
64668;BME280;51077;42.716;23.344;2023-03-04T07:11:15;95390.75;;;9.16;60.13
64668;BME280;51077;42.716;23.344;2023-03-04T07:13:41;95393.00;;;9.17;59.77
64668;BME280;51077;42.716;23.344;2023-03-04T07:16:08;95391.00;;;9.18;59.77
64668;BME280;51077;42.716;23.344;2023-03-04T07:18:36;95394.00;;;9.20;59.90
64668;BME280;51077;42.716;23.344;2023-03-04T07:21:02;95389.25;;;9.20;59.91
64668;BME280;51077;42.716;23.344;2023-03-04T07:23:27;95402.44;;;9.22;59.75
64668;BME280;51077;42.716;23.344;2023-03-04T07:25:55;95394.72;;;9.26;59.81
64668;BME280;51077;42.716;23.344;2023-03-04T07:28:20;95397.97;;;9.30;59.81
64668;BME280;51077;42.716;23.344;2023-03-04T07:30:46;95398.22;;;9.38;59.66
64668;BME280;51077;42.716;23.344;2023-03-04T07:33:12;95402.69;;;9.46;59.66
64668;BME280;51077;42.716;23.344;2023-03-04T07:35:38;95403.16;;;9.50;59.44
64668;BME280;51077;42.716;23.344;2023-03-04T07:38:03;95401.16;;;9.56;59.28
64668;BME280;51077;42.716;23.344;2023-03-04T07:40:28;95401.91;;;9.63;59.24
64668;BME280;51077;42.716;23.344;2023-03-04T07:42:55;95397.16;;;9.69;59.24
64668;BME280;51077;42.716;23.344;2023-03-04T07:45:21;95395.38;;;9.77;58.86
64668;BME280;51077;42.716;23.344;2023-03-04T07:47:47;95394.09;;;9.83;58.79
64668;BME280;51077;42.716;23.344;2023-03-04T07:50:13;95390.34;;;9.92;58.30
64668;BME280;51077;42.716;23.344;2023-03-04T07:52:41;95383.81;;;10.01;58.28
64668;BME280;51077;42.716;23.344;2023-03-04T07:55:08;95391.00;;;10.10;58.14
64668;BME280;51077;42.716;23.344;2023-03-04T07:57:33;95385.00;;;10.17;57.88
64668;BME280;51077;42.716;23.344;2023-03-04T07:59:59;95388.44;;;10.23;57.70
64668;BME280;51077;42.716;23.344;2023-03-04T08:02:24;95394.19;;;10.30;57.65
64668;BME280;51077;42.716;23.344;2023-03-04T08:04:50;95391.19;;;10.34;57.53
64668;BME280;51077;42.716;23.344;2023-03-04T08:07:15;95391.13;;;10.40;57.50
64668;BME280;51077;42.716;23.344;2023-03-04T08:09:41;95385.91;;;10.42;57.15
64668;BME280;51077;42.716;23.344;2023-03-04T08:12:06;95392.38;;;10.44;57.04
64668;BME280;51077;42.716;23.344;2023-03-04T08:14:32;95390.38;;;10.45;56.98
64668;BME280;51077;42.716;23.344;2023-03-04T08:16:58;95383.13;;;10.47;57.00
64668;BME280;51077;42.716;23.344;2023-03-04T08:19:23;95388.59;;;10.47;57.02
64668;BME280;51077;42.716;23.344;2023-03-04T08:21:49;95386.59;;;10.48;56.83
64668;BME280;51077;42.716;23.344;2023-03-04T08:24:14;95385.88;;;10.47;56.73
64668;BME280;51077;42.716;23.344;2023-03-04T08:26:45;95384.84;;;10.50;56.74
64668;BME280;51077;42.716;23.344;2023-03-04T08:29:14;95384.13;;;10.50;56.61
64668;BME280;51077;42.716;23.344;2023-03-04T08:31:40;95384.84;;;10.50;56.64
64668;BME280;51077;42.716;23.344;2023-03-04T08:34:06;95386.84;;;10.50;56.74
64668;BME280;51077;42.716;23.344;2023-03-04T08:36:33;95382.34;;;10.52;56.62
64668;BME280;51077;42.716;23.344;2023-03-04T08:38:58;95378.59;;;10.55;56.73
64668;BME280;51077;42.716;23.344;2023-03-04T08:41:23;95379.56;;;10.58;56.41
64668;BME280;51077;42.716;23.344;2023-03-04T08:43:51;95378.53;;;10.61;56.37
64668;BME280;51077;42.716;23.344;2023-03-04T08:46:17;95380.50;;;10.66;56.17
64668;BME280;51077;42.716;23.344;2023-03-04T08:48:42;95382.47;;;10.71;56.06
64668;BME280;51077;42.716;23.344;2023-03-04T08:51:10;95376.44;;;10.78;56.17
64668;BME280;51077;42.716;23.344;2023-03-04T08:53:39;95373.66;;;10.84;55.84
64668;BME280;51077;42.716;23.344;2023-03-04T08:56:05;95370.88;;;10.90;55.77
64668;BME280;51077;42.716;23.344;2023-03-04T08:58:31;95373.34;;;10.93;55.81
64668;BME280;51077;42.716;23.344;2023-03-04T09:00:58;95368.00;;;11.01;55.39
64668;BME280;51077;42.716;23.344;2023-03-04T09:03:24;95371.97;;;11.05;55.25
64668;BME280;51077;42.716;23.344;2023-03-04T09:05:50;95369.19;;;11.11;55.42
64668;BME280;51077;42.716;23.344;2023-03-04T09:08:16;95369.88;;;11.17;55.01
64668;BME280;51077;42.716;23.344;2023-03-04T09:10:43;95352.09;;;11.24;55.21
64668;BME280;51077;42.716;23.344;2023-03-04T09:13:09;95355.78;;;11.32;54.91
64668;BME280;51077;42.716;23.344;2023-03-04T09:15:44;95358.66;;;11.40;54.67
64668;BME280;51077;42.716;23.344;2023-03-04T09:18:10;95359.59;;;11.48;54.66
64668;BME280;51077;42.716;23.344;2023-03-04T09:20:35;95359.53;;;11.53;54.22
64668;BME280;51077;42.716;23.344;2023-03-04T09:23:00;95358.00;;;11.58;53.97
64668;BME280;51077;42.716;23.344;2023-03-04T09:25:26;95356.66;;;11.65;53.80
64668;BME280;51077;42.716;23.344;2023-03-04T09:27:51;95343.38;;;11.69;53.98
64668;BME280;51077;42.716;23.344;2023-03-04T09:30:17;95347.56;;;11.75;53.54
64668;BME280;51077;42.716;23.344;2023-03-04T09:32:42;95346.22;;;11.82;53.60
64668;BME280;51077;42.716;23.344;2023-03-04T09:35:07;95344.41;;;11.90;53.29
64668;BME280;51077;42.716;23.344;2023-03-04T09:37:34;95335.25;;;12.01;53.06
64668;BME280;51077;42.716;23.344;2023-03-04T09:40:00;95344.13;;;12.13;52.93
64668;BME280;51077;42.716;23.344;2023-03-04T09:42:32;95339.72;;;12.23;52.74
64668;BME280;51077;42.716;23.344;2023-03-04T09:44:59;95338.13;;;12.33;52.27
64668;BME280;51077;42.716;23.344;2023-03-04T09:47:26;95346.00;;;12.42;52.14
64668;BME280;51077;42.716;23.344;2023-03-04T09:50:00;95342.09;;;12.51;51.81
64668;BME280;51077;42.716;23.344;2023-03-04T09:55:22;95335.09;;;12.69;51.61
64668;BME280;51077;42.716;23.344;2023-03-04T10:00:32;95332.38;;;12.82;51.24
64668;BME280;51077;42.716;23.344;2023-03-04T10:06:10;95330.69;;;12.92;50.82
64668;BME280;51077;42.716;23.344;2023-03-04T10:08:51;95331.38;;;12.98;50.83
64668;BME280;51077;42.716;23.344;2023-03-04T10:11:44;95319.94;;;13.07;50.37
64668;BME280;51077;42.716;23.344;2023-03-04T10:14:58;95320.81;;;13.16;50.29
64668;BME280;51077;42.716;23.344;2023-03-04T10:17:37;95320.41;;;13.25;49.96
64668;BME280;51077;42.716;23.344;2023-03-04T10:20:25;95309.19;;;13.36;50.09
64668;BME280;51077;42.716;23.344;2023-03-04T10:22:59;95312.78;;;13.44;49.69
64668;BME280;51077;42.716;23.344;2023-03-04T10:25:29;95311.84;;;13.55;49.32
64668;BME280;51077;42.716;23.344;2023-03-04T10:27:57;95303.88;;;13.65;49.14
64668;BME280;51077;42.716;23.344;2023-03-04T10:33:12;95297.09;;;13.79;48.85
64668;BME280;51077;42.716;23.344;2023-03-04T10:35:38;95293.69;;;13.86;48.78
64668;BME280;51077;42.716;23.344;2023-03-04T10:38:05;95292.50;;;13.95;48.59
64668;BME280;51077;42.716;23.344;2023-03-04T10:40:37;95283.47;;;14.07;48.30
64668;BME280;51077;42.716;23.344;2023-03-04T10:43:02;95282.13;;;14.22;48.02
64668;BME280;51077;42.716;23.344;2023-03-04T10:45:37;95283.38;;;14.34;47.83
64668;BME280;51077;42.716;23.344;2023-03-04T10:48:03;95271.13;;;14.43;47.38
64668;BME280;51077;42.716;23.344;2023-03-04T10:50:28;95262.22;;;14.50;47.37
64668;BME280;51077;42.716;23.344;2023-03-04T10:52:54;95266.31;;;14.56;47.34
64668;BME280;51077;42.716;23.344;2023-03-04T10:55:27;95266.38;;;14.64;47.07
64668;BME280;51077;42.716;23.344;2023-03-04T10:57:55;95269.00;;;14.70;46.99
64668;BME280;51077;42.716;23.344;2023-03-04T11:00:36;95255.06;;;14.75;46.53
64668;BME280;51077;42.716;23.344;2023-03-04T11:08:39;95247.03;;;14.85;46.67
64668;BME280;51077;42.716;23.344;2023-03-04T11:13:54;95233.63;;;14.89;46.63
64668;BME280;51077;42.716;23.344;2023-03-04T11:16:28;95230.50;;;14.93;46.65
64668;BME280;51077;42.716;23.344;2023-03-04T11:18:59;95228.13;;;14.97;46.35
64668;BME280;51077;42.716;23.344;2023-03-04T11:21:30;95226.50;;;15.01;46.32
64668;BME280;51077;42.716;23.344;2023-03-04T11:24:12;95229.50;;;15.03;46.16
64668;BME280;51077;42.716;23.344;2023-03-04T11:26:50;95206.13;;;15.12;46.03
64668;BME280;51077;42.716;23.344;2023-03-04T11:29:29;95210.09;;;15.24;45.64
64668;BME280;51077;42.716;23.344;2023-03-04T11:37:00;95194.66;;;15.73;45.08
64668;BME280;51077;42.716;23.344;2023-03-04T11:39:40;95190.63;;;15.81;44.91
64668;BME280;51077;42.716;23.344;2023-03-04T11:45:11;95190.63;;;15.81;44.97
64668;BME280;51077;42.716;23.344;2023-03-04T11:51:00;95184.91;;;15.72;44.97
64668;BME280;51077;42.716;23.344;2023-03-04T12:01:18;95172.91;;;15.41;45.40
64668;BME280;51077;42.716;23.344;2023-03-04T12:11:48;95159.50;;;15.08;45.93
64668;BME280;51077;42.716;23.344;2023-03-04T12:20:15;95153.28;;;14.87;46.29
64668;BME280;51077;42.716;23.344;2023-03-04T12:22:46;95150.84;;;14.76;46.48
64668;BME280;51077;42.716;23.344;2023-03-04T12:36:16;95150.50;;;14.38;47.17
64668;BME280;51077;42.716;23.344;2023-03-04T12:38:53;95133.16;;;14.29;47.45
64668;BME280;51077;42.716;23.344;2023-03-04T12:44:16;95135.25;;;14.16;47.71
64668;BME280;51077;42.716;23.344;2023-03-04T12:50:02;95127.44;;;14.06;47.74
64668;BME280;51077;42.716;23.344;2023-03-04T12:55:09;95124.38;;;13.97;48.01
64668;BME280;51077;42.716;23.344;2023-03-04T12:57:35;95120.28;;;13.90;47.97
64668;BME280;51077;42.716;23.344;2023-03-04T13:00:16;95117.84;;;13.87;47.96
64668;BME280;51077;42.716;23.344;2023-03-04T13:02:59;95111.94;;;13.82;48.27
64668;BME280;51077;42.716;23.344;2023-03-04T13:05:43;95110.06;;;13.77;48.04
64668;BME280;51077;42.716;23.344;2023-03-04T13:10:46;95107.22;;;13.70;48.14
64668;BME280;51077;42.716;23.344;2023-03-04T13:16:04;95093.56;;;13.64;48.36
64668;BME280;51077;42.716;23.344;2023-03-04T13:18:35;95096.84;;;13.63;48.44
64668;BME280;51077;42.716;23.344;2023-03-04T13:21:27;95089.25;;;13.55;48.42
64668;BME280;51077;42.716;23.344;2023-03-04T13:23:54;95091.03;;;13.53;48.53
64668;BME280;51077;42.716;23.344;2023-03-04T13:26:32;95085.84;;;13.49;48.51
64668;BME280;51077;42.716;23.344;2023-03-04T13:42:47;95074.69;;;13.34;48.79
64668;BME280;51077;42.716;23.344;2023-03-04T13:45:33;95074.69;;;13.34;48.85
64668;BME280;51077;42.716;23.344;2023-03-04T13:47:59;95075.00;;;13.30;49.00
64668;BME280;51077;42.716;23.344;2023-03-04T13:50:31;95077.56;;;13.28;48.98
64668;BME280;51077;42.716;23.344;2023-03-04T13:53:37;95072.16;;;13.23;48.88
64668;BME280;51077;42.716;23.344;2023-03-04T13:56:04;95068.53;;;13.15;49.22
64668;BME280;51077;42.716;23.344;2023-03-04T13:58:31;95061.34;;;13.12;49.33
64668;BME280;51077;42.716;23.344;2023-03-04T14:00:57;95065.38;;;13.11;49.28
64668;BME280;51077;42.716;23.344;2023-03-04T14:03:26;95060.19;;;13.07;49.38
64668;BME280;51077;42.716;23.344;2023-03-04T14:06:15;95060.53;;;13.03;49.39
64668;BME280;51077;42.716;23.344;2023-03-04T14:08:42;95051.28;;;13.01;49.48
64668;BME280;51077;42.716;23.344;2023-03-04T14:13:54;95050.38;;;12.98;49.56
64668;BME280;51077;42.716;23.344;2023-03-04T14:16:23;95049.09;;;12.99;49.62
64668;BME280;51077;42.716;23.344;2023-03-04T14:19:02;95048.88;;;12.97;49.61
64668;BME280;51077;42.716;23.344;2023-03-04T14:21:31;95048.34;;;12.99;49.44
64668;BME280;51077;42.716;23.344;2023-03-04T14:24:06;95043.25;;;13.03;49.50
64668;BME280;51077;42.716;23.344;2023-03-04T14:26:32;95039.22;;;13.04;49.43
64668;BME280;51077;42.716;23.344;2023-03-04T14:28:58;95041.09;;;13.09;49.21
64668;BME280;51077;42.716;23.344;2023-03-04T14:31:27;95035.81;;;13.11;49.26
64668;BME280;51077;42.716;23.344;2023-03-04T14:33:55;95038.03;;;13.13;49.29
64668;BME280;51077;42.716;23.344;2023-03-04T14:36:24;95033.47;;;13.15;49.31
64668;BME280;51077;42.716;23.344;2023-03-04T14:39:02;95036.22;;;13.15;49.02